Terminal Aerodrome Forecast
Issued by NWS

Current Version | Previous Version | Text Only | Print | Product List | Glossary Off
Versions: 1 2 3 4 5 6 7 8 9 10 11 12 13 14 15 16 17 18 19 20 21 22 23 24 25

619
FTUS41 KPBZ 090342 AAA
TAFMGW
TAF AMD
KMGW 090342Z 0904/0924 00000KT 6SM BR BKN030
     FM090600 29005KT 5SM -SHSN OVC010
     FM090900 29005KT 2SM -SN OVC008
     FM092200 30008KT P6SM BKN015=

USA.gov is the U.S. government's official web portal to all federal, state and local government web resources and services.